Time;durP1;ratioP1;P1;durP2;ratioP2;P2;SDS_P1;SDS_P2;PMS_P1;PMS_P2;Temp;Humidity;BMP_temperature;BMP_pressure;BME280_temperature;BME280_humidity;BME280_pressure;Samples;Min_cycle;Max_cycle;Signal;HPM_P1;HPM_P2
2022/06/20 00:01:29;;;;;;;12.70;9.40;;;24.50;86.30;;;;;;4972381;28;20454;-64
2022/06/20 00:03:55;;;;;;;9.47;8.60;;;24.40;87.20;;;;;;4971700;28;20464;-65
2022/06/20 00:06:23;;;;;;;11.10;9.90;;;24.40;87.70;;;;;;4972720;28;20531;-65
2022/06/20 00:08:51;;;;;;;11.30;9.43;;;24.30;88.20;;;;;;4968088;28;20705;-64
2022/06/20 00:11:31;;;;;;;10.43;9.33;;;24.30;88.60;;;;;;4974645;28;20534;-64
2022/06/20 00:13:57;;;;;;;10.93;8.90;;;24.20;88.60;;;;;;4971616;28;20850;-64
2022/06/20 00:16:24;;;;;;;10.53;9.53;;;24.20;89.50;;;;;;4973910;28;20498;-65
2022/06/20 00:18:50;;;;;;;10.10;9.10;;;24.20;89.70;;;;;;4964075;28;20204;-64
2022/06/20 00:21:19;;;;;;;10.77;9.70;;;24.20;90.00;;;;;;4970892;28;20459;-65
2022/06/20 00:23:45;;;;;;;12.43;9.17;;;24.10;90.20;;;;;;4972428;28;20435;-64
2022/06/20 00:26:12;;;;;;;10.23;8.70;;;24.00;90.60;;;;;;4968073;28;20531;-65
2022/06/20 00:28:38;;;;;;;12.43;9.80;;;24.10;90.60;;;;;;4971709;28;20454;-64
2022/06/20 00:31:04;;;;;;;9.90;9.00;;;24.00;90.80;;;;;;4972407;28;20443;-64
2022/06/20 00:33:30;;;;;;;10.70;8.43;;;24.00;91.00;;;;;;4970060;28;20601;-64
2022/06/20 00:35:58;;;;;;;10.33;9.13;;;24.00;91.20;;;;;;4972827;28;20431;-64
2022/06/20 00:38:24;;;;;;;10.90;9.73;;;23.90;91.30;;;;;;4965506;28;20851;-64
2022/06/20 00:40:53;;;;;;;11.93;9.10;;;23.90;91.50;;;;;;4968249;28;20480;-64
2022/06/20 00:43:33;;;;;;;10.43;9.50;;;23.90;91.70;;;;;;4970982;28;20538;-65
2022/06/20 00:46:03;;;;;;;12.00;8.60;;;23.90;91.70;;;;;;4971066;28;20466;-65
2022/06/20 00:48:52;;;;;;;13.37;9.60;;;23.70;92.00;;;;;;4961607;28;20961;-65
2022/06/20 00:51:35;;;;;;;12.93;9.27;;;23.70;92.50;;;;;;4969823;28;20457;-65
2022/06/20 00:54:23;;;;;;;14.20;9.63;;;23.60;92.60;;;;;;4978051;28;20521;-65
2022/06/20 00:57:03;;;;;;;10.30;9.30;;;23.60;92.90;;;;;;4966593;28;20442;-64
2022/06/20 00:59:36;;;;;;;12.33;9.17;;;23.60;92.90;;;;;;4968134;28;20973;-65
2022/06/20 01:02:06;;;;;;;10.60;8.77;;;23.70;92.90;;;;;;4961825;28;20566;-64
2022/06/20 01:05:04;;;;;;;10.13;9.23;;;23.80;92.90;;;;;;4967407;28;20455;-65
2022/06/20 01:07:40;;;;;;;12.30;9.67;;;23.80;92.80;;;;;;4973696;28;20447;-65
2022/06/20 01:10:08;;;;;;;12.23;9.93;;;23.80;94.50;;;;;;4974336;28;20490;-65
2022/06/20 01:12:48;;;;;;;16.17;10.10;;;23.80;96.90;;;;;;4976179;28;20431;-65
2022/06/20 01:15:22;;;;;;;14.20;11.13;;;23.80;96.90;;;;;;4967802;28;20455;-64
2022/06/20 01:17:49;;;;;;;11.67;10.40;;;23.80;98.00;;;;;;4968002;28;20596;-64
2022/06/20 01:20:17;;;;;;;15.20;12.37;;;23.80;99.90;;;;;;4969283;28;20807;-65
2022/06/20 01:22:52;;;;;;;13.37;11.33;;;23.80;99.90;;;;;;4970549;28;20436;-64
2022/06/20 01:25:48;;;;;;;16.37;12.00;;;23.60;99.90;;;;;;4969929;28;20431;-64
2022/06/20 01:28:22;;;;;;;12.33;10.73;;;23.20;99.90;;;;;;4966826;28;20443;-64
2022/06/20 01:30:49;;;;;;;15.00;13.40;;;23.00;99.90;;;;;;4972588;28;21144;-64
2022/06/20 01:33:17;;;;;;;14.70;12.53;;;22.80;99.90;;;;;;4969308;28;20455;-64
2022/06/20 01:38:28;;;;;;;14.90;13.20;;;22.60;99.90;;;;;;4968768;28;20529;-64
2022/06/20 01:43:40;;;;;;;12.90;11.50;;;22.30;99.90;;;;;;4968624;28;20510;-64
2022/06/20 01:46:10;;;;;;;13.27;11.97;;;22.60;99.90;;;;;;4976603;28;20475;-64
2022/06/20 01:48:39;;;;;;;14.00;12.60;;;22.50;99.90;;;;;;4968721;28;20455;-65
2022/06/20 01:51:13;;;;;;;14.70;12.90;;;22.50;99.90;;;;;;4971534;28;21125;-65
2022/06/20 01:53:40;;;;;;;15.60;12.80;;;22.40;99.90;;;;;;4972392;28;20994;-65
2022/06/20 01:56:08;;;;;;;19.63;13.67;;;22.20;99.90;;;;;;4971251;28;20451;-64
2022/06/20 01:58:46;;;;;;;13.70;12.27;;;22.10;99.90;;;;;;4967750;28;20470;-64
2022/06/20 02:01:14;;;;;;;14.27;12.80;;;22.00;99.90;;;;;;4964230;28;20463;-64
2022/06/20 02:03:43;;;;;;;15.20;13.10;;;21.90;99.90;;;;;;4964739;28;20459;-64
2022/06/20 02:06:10;;;;;;;13.97;12.57;;;21.90;99.90;;;;;;4971365;28;20519;-64
2022/06/20 02:08:39;;;;;;;13.87;12.37;;;21.80;99.90;;;;;;4970600;28;20451;-64
2022/06/20 02:11:13;;;;;;;14.03;12.53;;;21.80;99.90;;;;;;4970274;28;20558;-64
2022/06/20 02:13:43;;;;;;;15.60;14.07;;;21.80;99.90;;;;;;4971227;28;20434;-64
2022/06/20 02:16:13;;;;;;;13.73;12.30;;;21.80;99.90;;;;;;4972816;28;20435;-65
2022/06/20 02:18:41;;;;;;;17.67;12.53;;;21.70;99.90;;;;;;4967786;28;20537;-65
2022/06/20 02:21:14;;;;;;;15.27;13.65;;;21.70;99.90;;;;;;4972735;28;20459;-64
2022/06/20 02:23:46;;;;;;;14.70;11.93;;;21.70;99.90;;;;;;4975124;28;20649;-64
2022/06/20 02:26:14;;;;;;;18.83;12.80;;;21.70;99.90;;;;;;4973767;28;20469;-64
2022/06/20 02:29:05;;;;;;;16.73;12.00;;;21.80;99.90;;;;;;4976033;28;20458;-65
2022/06/20 02:31:30;;;;;;;13.43;12.10;;;21.80;99.90;;;;;;4975833;28;20459;-65
2022/06/20 02:33:56;;;;;;;14.17;12.70;;;21.80;99.90;;;;;;4971817;28;20546;-64
2022/06/20 02:36:22;;;;;;;20.17;12.93;;;21.90;99.90;;;;;;4973567;28;20179;-64
2022/06/20 02:38:48;;;;;;;14.93;12.90;;;22.00;99.90;;;;;;4972568;28;20204;-64
2022/06/20 02:41:19;;;;;;;15.30;12.87;;;22.00;99.90;;;;;;4972060;28;20451;-65
2022/06/20 02:44:11;;;;;;;17.10;13.60;;;22.00;99.90;;;;;;4965860;28;20446;-64
2022/06/20 02:46:38;;;;;;;15.50;12.83;;;21.90;99.90;;;;;;4974925;28;20443;-64
2022/06/20 02:49:09;;;;;;;21.50;13.00;;;21.80;99.90;;;;;;4975018;28;20447;-64
2022/06/20 02:51:37;;;;;;;16.63;13.30;;;21.60;99.90;;;;;;4971266;28;20462;-64
2022/06/20 02:54:05;;;;;;;15.90;12.97;;;21.50;99.90;;;;;;4972738;28;20442;-64
2022/06/20 02:56:37;;;;;;;17.33;13.18;;;21.40;99.90;;;;;;4978592;28;20446;-64
2022/06/20 02:59:11;;;;;;;15.43;13.77;;;21.40;99.90;;;;;;4967892;28;20245;-65
2022/06/20 03:01:46;;;;;;;16.80;13.63;;;21.50;99.90;;;;;;4974669;28;20464;-64
2022/06/20 03:04:12;;;;;;;15.77;13.18;;;21.50;99.90;;;;;;4971469;28;20459;-64
2022/06/20 03:06:45;;;;;;;18.07;12.03;;;21.50;99.90;;;;;;4974041;28;20579;-64
2022/06/20 03:09:13;;;;;;;14.60;12.47;;;21.60;99.90;;;;;;4965925;28;20184;-64
2022/06/20 03:11:39;;;;;;;15.90;11.53;;;21.60;99.90;;;;;;4973609;28;20495;-64
2022/06/20 03:14:08;;;;;;;11.90;10.80;;;21.60;99.90;;;;;;4973212;28;20873;-65
2022/06/20 03:16:34;;;;;;;15.10;12.30;;;21.70;99.90;;;;;;4971786;28;20454;-65
2022/06/20 03:19:01;;;;;;;14.83;12.80;;;21.70;99.90;;;;;;4972278;28;20471;-64
2022/06/20 03:21:35;;;;;;;15.82;12.65;;;21.70;99.90;;;;;;4971775;28;20207;-65
2022/06/20 03:24:02;;;;;;;15.40;13.00;;;21.70;99.90;;;;;;4970179;28;20177;-64
2022/06/20 03:26:28;;;;;;;12.80;11.60;;;21.70;99.90;;;;;;4969731;28;20193;-64
2022/06/20 03:28:54;;;;;;;13.67;11.50;;;21.70;99.90;;;;;;4972796;28;20487;-65
2022/06/20 03:31:20;;;;;;;18.83;12.10;;;21.60;99.90;;;;;;4972581;28;20466;-65
2022/06/20 03:33:46;;;;;;;14.60;12.10;;;21.60;99.90;;;;;;4970563;28;20186;-66
2022/06/20 03:36:20;;;;;;;14.70;12.55;;;21.50;99.90;;;;;;4971716;28;20447;-65
2022/06/20 03:38:47;;;;;;;14.47;12.13;;;21.50;99.90;;;;;;4976863;28;20235;-65
2022/06/20 03:41:16;;;;;;;15.03;13.07;;;21.50;99.90;;;;;;4972171;28;20478;-65
2022/06/20 03:43:50;;;;;;;20.97;12.80;;;21.60;99.90;;;;;;4976749;28;20471;-66
2022/06/20 03:46:21;;;;;;;15.48;12.52;;;21.60;99.90;;;;;;4972803;28;20459;-65
2022/06/20 03:48:56;;;;;;;15.40;11.73;;;21.60;99.90;;;;;;4970094;28;20274;-65
2022/06/20 03:51:26;;;;;;;14.33;12.43;;;21.60;99.90;;;;;;4971183;28;20806;-66
2022/06/20 03:54:04;;;;;;;12.70;10.68;;;21.60;99.90;;;;;;4973580;28;20529;-65
2022/06/20 03:56:38;;;;;;;17.17;11.10;;;21.60;99.90;;;;;;4969247;28;20264;-65
2022/06/20 03:59:13;;;;;;;13.97;11.80;;;21.70;99.90;;;;;;4966318;28;20466;-65
2022/06/20 04:01:46;;;;;;;16.73;12.20;;;21.60;99.90;;;;;;4969770;28;20474;-64
2022/06/20 04:04:17;;;;;;;11.90;10.77;;;21.60;99.90;;;;;;4970131;28;20467;-64
2022/06/20 04:07:01;;;;;;;14.43;10.60;;;21.60;99.90;;;;;;4974841;28;20450;-64
2022/06/20 04:12:40;;;;;;;12.80;11.20;;;21.40;99.90;;;;;;4967958;28;20207;-65
2022/06/20 04:15:22;;;;;;;12.33;11.00;;;21.50;99.90;;;;;;4970621;28;20463;-65
2022/06/20 04:20:58;;;;;;;18.23;13.87;;;21.50;99.90;;;;;;4971355;28;20266;-56
2022/06/20 04:23:37;;;;;;;16.10;11.48;;;21.60;99.90;;;;;;4969135;28;20422;-58
2022/06/20 04:26:17;;;;;;;13.40;11.53;;;21.50;99.90;;;;;;4962563;28;20188;-59
2022/06/20 04:28:48;;;;;;;15.05;11.57;;;21.40;99.90;;;;;;4964114;28;20452;-56
2022/06/20 04:31:25;;;;;;;16.70;11.80;;;21.40;99.90;;;;;;4968288;28;20251;-59
2022/06/20 04:34:04;;;;;;;14.75;9.45;;;21.50;99.90;;;;;;4968888;28;20200;-57
2022/06/20 04:36:41;;;;;;;13.65;9.75;;;21.50;99.90;;;;;;4972101;28;20191;-57
2022/06/20 04:39:21;;;;;;;13.00;9.30;;;21.50;99.90;;;;;;4969809;28;20572;-58
2022/06/20 04:41:51;;;;;;;9.77;8.80;;;21.40;99.90;;;;;;4968845;28;20189;-57
2022/06/20 04:44:40;;;;;;;12.70;11.40;;;21.40;99.90;;;;;;4971256;28;20911;-57
2022/06/20 04:47:48;;;;;;;13.90;11.00;;;21.40;99.90;;;;;;4966138;28;20486;-58
2022/06/20 04:50:17;;;;;;;13.37;11.27;;;21.40;99.90;;;;;;4965014;28;20493;-57
2022/06/20 04:52:44;;;;;;;14.32;11.65;;;21.40;99.90;;;;;;4970694;28;20987;-61
2022/06/20 04:55:16;;;;;;;13.80;10.70;;;21.20;99.90;;;;;;4970986;28;20191;-63
2022/06/20 04:57:42;;;;;;;13.02;10.45;;;21.20;99.90;;;;;;4967817;28;20324;-61
2022/06/20 05:00:17;;;;;;;16.07;11.27;;;21.20;99.90;;;;;;4971633;28;20286;-61
2022/06/20 05:02:43;;;;;;;12.07;10.82;;;21.10;99.90;;;;;;4964105;28;20887;-61
2022/06/20 05:05:23;;;;;;;13.40;10.43;;;21.00;99.90;;;;;;4969242;28;20295;-61
2022/06/20 05:07:50;;;;;;;17.08;10.57;;;21.10;99.90;;;;;;4965761;28;20810;-58
2022/06/20 05:10:25;;;;;;;11.80;10.70;;;21.10;99.90;;;;;;4971127;28;20208;-57
2022/06/20 05:13:06;;;;;;;12.57;11.10;;;21.10;99.90;;;;;;4969352;28;21358;-57
2022/06/20 05:15:38;;;;;;;14.40;11.70;;;21.10;99.90;;;;;;4965108;28;20203;-69
2022/06/20 05:18:32;;;;;;;13.27;12.07;;;21.10;99.90;;;;;;4960953;28;20550;-70
2022/06/20 05:21:06;;;;;;;16.20;11.82;;;21.20;99.90;;;;;;4963752;28;20235;-68
2022/06/20 05:23:47;;;;;;;12.18;10.77;;;21.30;99.90;;;;;;4966600;28;20713;-68
2022/06/20 05:26:22;;;;;;;12.80;11.10;;;21.40;99.90;;;;;;4960704;28;20184;-67
2022/06/20 05:28:51;;;;;;;12.63;10.40;;;21.40;99.90;;;;;;4966127;28;20497;-67
2022/06/20 05:31:28;;;;;;;12.93;10.98;;;21.60;99.90;;;;;;4970057;28;20463;-65
2022/06/20 05:33:59;;;;;;;11.25;9.98;;;21.40;99.90;;;;;;4965216;28;20682;-66
2022/06/20 05:36:30;;;;;;;11.30;9.50;;;21.40;99.90;;;;;;4965992;28;20212;-67
2022/06/20 05:39:05;;;;;;;13.17;10.10;;;21.40;99.90;;;;;;4968501;28;20479;-67
2022/06/20 05:41:31;;;;;;;10.25;9.15;;;21.40;99.90;;;;;;4964894;28;20558;-71
2022/06/20 05:43:57;;;;;;;15.60;11.50;;;21.20;99.90;;;;;;4967514;28;20259;-67
2022/06/20 05:46:29;;;;;;;13.50;11.63;;;21.30;99.90;;;;;;4970849;28;20176;-65
2022/06/20 05:49:04;;;;;;;10.70;9.63;;;21.30;99.90;;;;;;4961357;28;20540;-66
2022/06/20 05:51:33;;;;;;;11.38;10.18;;;21.20;99.90;;;;;;4968762;28;20776;-64
2022/06/20 05:54:04;;;;;;;12.77;10.98;;;21.10;99.90;;;;;;4967671;28;20236;-63
2022/06/20 05:56:39;;;;;;;14.20;10.43;;;21.10;99.90;;;;;;4972087;28;20180;-64
2022/06/20 06:26:35;;;;;;;13.27;11.17;;;21.80;99.90;;;;;;4969193;28;20431;-69
2022/06/20 06:29:02;;;;;;;13.20;11.70;;;22.10;99.90;;;;;;4964060;28;20459;-69
2022/06/20 06:31:37;;;;;;;14.43;11.57;;;22.20;99.90;;;;;;4970170;28;20474;-72
2022/06/20 06:34:22;;;;;;;12.10;10.87;;;22.20;99.90;;;;;;4971514;28;20438;-69
2022/06/20 06:36:57;;;;;;;16.70;15.00;;;22.20;99.90;;;;;;4972622;28;20440;-70
2022/06/20 06:39:36;;;;;;;12.30;11.13;;;22.10;99.90;;;;;;4971803;28;20438;-71
2022/06/20 06:42:04;;;;;;;14.53;11.50;;;22.30;99.90;;;;;;4966020;28;20948;-71
2022/06/20 06:44:38;;;;;;;11.50;10.30;;;22.70;99.90;;;;;;4971266;28;20519;-68
2022/06/20 06:47:15;;;;;;;10.23;9.00;;;23.20;99.90;;;;;;4967545;28;20835;-68
2022/06/20 06:49:45;;;;;;;11.53;10.43;;;23.70;99.90;;;;;;4969309;28;20896;-68
2022/06/20 06:52:16;;;;;;;12.70;11.07;;;24.00;99.90;;;;;;4969470;28;20530;-68
2022/06/20 06:54:42;;;;;;;13.73;11.47;;;24.20;99.90;;;;;;4972782;28;20442;-68
2022/06/20 06:57:26;;;;;;;13.73;12.30;;;23.90;99.90;;;;;;4969861;28;20929;-70
2022/06/20 07:00:13;;;;;;;14.47;11.43;;;23.60;99.90;;;;;;4969360;28;20204;-68
2022/06/20 07:02:43;;;;;;;12.93;11.67;;;23.50;99.90;;;;;;4967267;28;20483;-70
2022/06/20 07:05:15;;;;;;;13.20;11.90;;;23.60;99.90;;;;;;4962249;28;20506;-75
2022/06/20 07:07:58;;;;;;;16.30;11.03;;;24.20;99.90;;;;;;4959849;28;20440;-72
2022/06/20 07:10:37;;;;;;;12.57;10.30;;;25.30;99.90;;;;;;4970713;28;20567;-73
2022/06/20 07:13:16;;;;;;;13.10;9.67;;;26.90;99.90;;;;;;4969244;28;20448;-72
2022/06/20 07:15:43;;;;;;;10.80;9.80;;;28.50;98.00;;;;;;4971503;28;20469;-72
2022/06/20 07:18:41;;;;;;;14.07;9.33;;;30.20;94.50;;;;;;4966945;28;20511;-74
2022/06/20 07:21:10;;;;;;;12.00;8.80;;;31.50;89.50;;;;;;4972443;28;20482;-73
2022/06/20 07:23:35;;;;;;;10.20;9.30;;;32.60;83.30;;;;;;4973730;28;20435;-73
2022/06/20 07:26:01;;;;;;;14.53;9.50;;;32.40;80.50;;;;;;4965124;28;20463;-72
2022/06/20 07:28:36;;;;;;;14.33;8.13;;;31.70;82.70;;;;;;4968223;28;20200;-77
2022/06/20 07:31:33;;;;;;;7.57;6.80;;;34.30;78.20;;;;;;4973052;28;20294;-77
2022/06/20 07:34:21;;;;;;;13.50;8.20;;;37.30;67.90;;;;;;4966011;28;20451;-72
2022/06/20 07:37:04;;;;;;;8.93;7.60;;;38.70;58.30;;;;;;4968589;28;20920;-73
2022/06/20 07:39:35;;;;;;;9.03;7.93;;;37.50;53.80;;;;;;4968214;28;20523;-72
2022/06/20 07:42:08;;;;;;;8.37;6.53;;;39.00;54.90;;;;;;4963950;28;20603;-73
2022/06/20 07:44:42;;;;;;;8.60;7.70;;;39.80;52.10;;;;;;4969039;28;20512;-75
2022/06/20 07:47:15;;;;;;;8.30;7.03;;;41.00;49.50;;;;;;4968927;28;20704;-77
2022/06/20 07:49:49;;;;;;;8.17;7.47;;;41.90;46.80;;;;;;4986710;28;20538;-78
2022/06/20 07:52:44;;;;;;;11.33;7.10;;;42.50;44.50;;;;;;4964929;28;20448;-78
2022/06/20 07:55:14;;;;;;;8.43;7.37;;;42.30;44.20;;;;;;4959023;28;20444;-76
2022/06/20 07:58:12;;;;;;;8.37;6.90;;;43.00;43.80;;;;;;4966398;28;20986;-76
2022/06/20 08:00:52;;;;;;;10.73;9.60;;;40.50;45.40;;;;;;4966024;28;20527;-71
2022/06/20 08:03:47;;;;;;;9.30;8.30;;;39.90;47.90;;;;;;4966534;28;20807;-74
2022/06/20 08:06:20;;;;;;;8.17;7.43;;;39.70;47.60;;;;;;4968756;28;20470;-74
2022/06/20 08:09:06;;;;;;;12.50;8.90;;;39.90;48.70;;;;;;4969515;28;20455;-73
2022/06/20 08:11:45;;;;;;;11.50;8.10;;;39.90;48.00;;;;;;4970231;28;20992;-72
2022/06/20 08:14:23;;;;;;;8.23;7.30;;;39.60;48.40;;;;;;4968183;28;20821;-72
2022/06/20 08:16:53;;;;;;;10.40;9.40;;;41.00;45.70;;;;;;4971488;28;20459;-74
2022/06/20 08:19:18;;;;;;;9.23;8.40;;;41.40;44.10;;;;;;4964619;28;20472;-74
2022/06/20 08:21:47;;;;;;;8.73;7.83;;;41.10;45.80;;;;;;4971891;28;21311;-73
2022/06/20 08:24:21;;;;;;;10.43;8.03;;;40.90;45.20;;;;;;4969708;28;20188;-74
2022/06/20 08:26:54;;;;;;;7.83;6.90;;;39.90;45.00;;;;;;4960154;28;20455;-75
2022/06/20 08:29:31;;;;;;;7.87;7.13;;;39.00;45.00;;;;;;4968261;28;20463;-78
2022/06/20 08:32:06;;;;;;;8.13;6.30;;;39.90;43.50;;;;;;4967608;28;20529;-76
2022/06/20 08:34:38;;;;;;;8.57;6.40;;;40.10;42.90;;;;;;4974434;28;21487;-71
2022/06/20 08:37:27;;;;;;;8.03;6.10;;;40.30;41.50;;;;;;4967899;28;20503;-71
2022/06/20 08:39:57;;;;;;;7.13;6.43;;;40.70;41.20;;;;;;4969125;28;20466;-72
2022/06/20 08:42:32;;;;;;;6.90;6.20;;;40.60;41.50;;;;;;4965933;28;21019;-73
2022/06/20 08:45:12;;;;;;;6.70;6.10;;;40.20;41.00;;;;;;4970969;28;20484;-71
2022/06/20 08:48:06;;;;;;;8.67;7.13;;;39.70;41.70;;;;;;4970954;28;21003;-73
2022/06/20 08:50:56;;;;;;;9.17;6.40;;;41.00;41.00;;;;;;4960946;28;20476;-74
2022/06/20 08:53:40;;;;;;;8.20;7.20;;;41.40;40.50;;;;;;4969070;28;20447;-73
2022/06/20 08:56:12;;;;;;;7.60;6.83;;;40.00;41.50;;;;;;4968817;28;20479;-72
2022/06/20 08:58:41;;;;;;;9.93;7.23;;;40.50;41.30;;;;;;4969199;28;20477;-71
2022/06/20 09:01:15;;;;;;;10.40;6.60;;;40.20;41.10;;;;;;4968341;28;20463;-70
2022/06/20 09:04:18;;;;;;;12.53;11.27;;;40.50;41.10;;;;;;4968424;28;20462;-70
2022/06/20 09:07:12;;;;;;;9.60;7.83;;;40.20;41.60;;;;;;4969721;28;20514;-69
2022/06/20 09:10:03;;;;;;;8.53;7.50;;;39.00;42.00;;;;;;4964368;28;20451;-71
2022/06/20 09:13:04;;;;;;;7.87;6.70;;;40.30;42.20;;;;;;4965451;28;20439;-72
2022/06/20 09:15:57;;;;;;;8.67;7.17;;;40.30;41.60;;;;;;4969793;28;20455;-69
2022/06/20 09:18:23;;;;;;;6.93;6.27;;;40.90;40.40;;;;;;4963144;28;20488;-68
2022/06/20 09:21:14;;;;;;;8.17;7.33;;;40.90;40.60;;;;;;4969799;28;20609;-68
2022/06/20 09:24:10;;;;;;;7.97;7.23;;;42.00;39.60;;;;;;4971752;28;20188;-68
2022/06/20 09:26:54;;;;;;;9.67;8.50;;;40.90;39.20;;;;;;4970532;28;20462;-68
2022/06/20 09:29:48;;;;;;;8.33;6.80;;;41.60;40.10;;;;;;4959119;28;20467;-68
2022/06/20 09:32:24;;;;;;;7.97;6.83;;;41.70;39.20;;;;;;4962354;28;20574;-68
2022/06/20 09:35:14;;;;;;;9.63;7.00;;;41.10;38.90;;;;;;4968516;28;20439;-68
2022/06/20 09:37:48;;;;;;;10.40;7.60;;;40.80;39.50;;;;;;4968926;28;20471;-68
2022/06/20 09:40:44;;;;;;;8.73;7.13;;;41.40;40.00;;;;;;4966440;28;20490;-67
2022/06/20 09:43:25;;;;;;;8.03;7.30;;;41.90;38.50;;;;;;4963037;28;20863;-67
2022/06/20 09:46:36;;;;;;;7.97;7.13;;;41.30;38.70;;;;;;4968528;28;20519;-67
2022/06/20 09:49:29;;;;;;;9.40;7.37;;;39.80;41.30;;;;;;4960583;28;20455;-71
2022/06/20 09:52:06;;;;;;;9.27;8.37;;;39.50;41.00;;;;;;4968949;28;20435;-73
2022/06/20 09:54:55;;;;;;;8.60;7.70;;;38.50;43.00;;;;;;4965617;28;20979;-76
2022/06/20 09:57:42;;;;;;;8.67;7.97;;;37.10;44.80;;;;;;4961604;28;20566;-75
2022/06/20 10:00:25;;;;;;;8.60;7.20;;;35.90;46.60;;;;;;4964893;28;20546;-77
2022/06/20 10:02:50;;;;;;;8.63;7.67;;;34.90;48.70;;;;;;4960590;28;20452;-71
2022/06/20 10:05:22;;;;;;;8.60;7.40;;;34.30;49.60;;;;;;4966284;28;20452;-72
2022/06/20 10:08:17;;;;;;;9.33;7.60;;;34.00;50.50;;;;;;4967685;28;20684;-71
2022/06/20 10:11:07;;;;;;;8.33;6.83;;;34.60;49.60;;;;;;4968786;28;20518;-74
2022/06/20 10:13:39;;;;;;;7.30;6.60;;;35.80;48.10;;;;;;4963752;28;20563;-73
2022/06/20 10:16:11;;;;;;;10.07;7.87;;;35.90;46.30;;;;;;4970250;28;20442;-74
2022/06/20 10:19:11;;;;;;;9.80;7.00;;;35.00;48.30;;;;;;4969102;28;20997;-72
2022/06/20 10:21:36;;;;;;;7.67;7.00;;;34.80;49.00;;;;;;4963104;28;20474;-72
2022/06/20 10:24:25;;;;;;;8.57;6.10;;;34.60;48.90;;;;;;4964599;28;20432;-73
2022/06/20 10:27:18;;;;;;;11.47;7.23;;;34.00;50.30;;;;;;4968698;28;20176;-68
2022/06/20 10:30:02;;;;;;;7.87;6.47;;;33.30;51.80;;;;;;4954387;28;20480;-67
2022/06/20 10:33:05;;;;;;;7.50;6.80;;;33.40;52.10;;;;;;4963635;28;20668;-68
2022/06/20 10:35:57;;;;;;;10.47;6.77;;;34.00;51.30;;;;;;4967472;28;20435;-67
2022/06/20 10:39:04;;;;;;;7.97;6.50;;;33.60;51.60;;;;;;4960910;28;20587;-73
2022/06/20 10:41:48;;;;;;;9.43;7.87;;;32.80;53.50;;;;;;4964952;28;20470;-67
2022/06/20 10:44:27;;;;;;;8.50;7.63;;;32.60;54.20;;;;;;4968300;28;20439;-71
2022/06/20 10:47:07;;;;;;;7.73;6.90;;;32.20;54.00;;;;;;4968522;28;20457;-70
2022/06/20 10:50:08;;;;;;;6.67;5.70;;;32.40;54.80;;;;;;4969966;28;20447;-70
2022/06/20 10:52:46;;;;;;;6.20;5.60;;;32.60;51.50;;;;;;4962729;28;20439;-73
2022/06/20 10:55:48;;;;;;;9.50;5.10;;;33.20;51.40;;;;;;4969058;28;20446;-67
2022/06/20 10:58:49;;;;;;;5.77;4.80;;;33.10;49.40;;;;;;4968693;28;20553;-67
2022/06/20 11:01:23;;;;;;;5.63;5.13;;;32.70;50.10;;;;;;4959707;28;20462;-68
2022/06/20 11:03:54;;;;;;;5.10;4.70;;;33.10;49.80;;;;;;4964617;28;20449;-66
2022/06/20 11:06:45;;;;;;;6.83;5.60;;;33.90;49.60;;;;;;4963192;28;21483;-66
2022/06/20 11:09:22;;;;;;;8.20;6.27;;;33.90;48.80;;;;;;4959644;28;20496;-71
2022/06/20 11:12:26;;;;;;;10.27;5.80;;;33.10;48.20;;;;;;4970778;28;21201;-72
2022/06/20 11:15:17;;;;;;;7.13;5.87;;;32.60;49.90;;;;;;4970295;28;20544;-73
2022/06/20 11:18:10;;;;;;;7.47;5.00;;;31.40;51.50;;;;;;4973820;28;20475;-74
2022/06/20 11:20:51;;;;;;;7.00;5.10;;;31.10;51.80;;;;;;4971893;28;20456;-76
2022/06/20 11:23:38;;;;;;;6.17;5.57;;;31.20;52.80;;;;;;4960441;28;20539;-77
2022/06/20 11:26:16;;;;;;;8.83;8.03;;;31.10;52.70;;;;;;4967299;28;20450;-75
2022/06/20 11:29:17;;;;;;;5.43;4.90;;;30.90;53.50;;;;;;4966333;28;20456;-73
2022/06/20 11:32:18;;;;;;;8.33;6.10;;;30.80;52.30;;;;;;4965446;28;20474;-72
2022/06/20 11:35:03;;;;;;;6.60;5.83;;;30.60;53.40;;;;;;4969388;28;20439;-70
2022/06/20 11:37:36;;;;;;;6.93;6.37;;;30.50;55.70;;;;;;4963760;28;20496;-72
2022/06/20 11:40:23;;;;;;;9.33;7.00;;;30.60;56.40;;;;;;4971146;28;20518;-72
2022/06/20 11:43:03;;;;;;;7.33;6.70;;;30.70;57.30;;;;;;4966414;28;20499;-74
2022/06/20 11:45:51;;;;;;;10.67;7.27;;;30.20;58.00;;;;;;4964141;28;20497;-68
2022/06/20 11:48:47;;;;;;;12.00;6.87;;;30.00;59.50;;;;;;4966709;28;20468;-68
2022/06/20 11:51:51;;;;;;;10.93;7.37;;;29.60;59.80;;;;;;4967824;28;20486;-74
2022/06/20 11:54:48;;;;;;;7.73;7.03;;;29.50;61.60;;;;;;4962870;28;20472;-75
2022/06/20 11:57:31;;;;;;;8.10;7.30;;;29.40;62.30;;;;;;4964536;28;20455;-73
2022/06/20 12:00:00;;;;;;;9.93;6.87;;;29.30;62.70;;;;;;4968297;28;20522;-74
2022/06/20 12:03:08;;;;;;;7.97;7.10;;;29.20;63.20;;;;;;4990722;28;20541;-75
2022/06/20 12:05:34;;;;;;;6.70;6.00;;;29.40;63.40;;;;;;4962707;28;20531;-74
2022/06/20 12:08:18;;;;;;;7.77;6.77;;;29.30;62.90;;;;;;4969132;28;20450;-74
2022/06/20 12:10:56;;;;;;;8.73;8.03;;;29.60;62.70;;;;;;4967915;28;20209;-74
2022/06/20 12:13:28;;;;;;;7.67;6.43;;;29.20;63.60;;;;;;4966532;28;20441;-72
2022/06/20 12:16:15;;;;;;;5.97;5.37;;;29.30;62.40;;;;;;4958657;28;20686;-71
2022/06/20 12:24:41;;;;;;;5.87;4.60;;;28.90;62.40;;;;;;4969372;28;20959;-68
2022/06/20 12:27:16;;;;;;;6.70;4.70;;;28.70;61.70;;;;;;4969332;28;20436;-67
2022/06/20 12:29:44;;;;;;;4.80;4.40;;;28.70;62.40;;;;;;4968855;28;20527;-68
2022/06/20 12:32:24;;;;;;;5.30;4.20;;;28.50;62.10;;;;;;4966502;28;20439;-68
2022/06/20 12:35:00;;;;;;;7.70;4.43;;;28.40;62.30;;;;;;4970082;28;20434;-67
2022/06/20 12:37:41;;;;;;;7.10;4.60;;;28.40;62.10;;;;;;4968674;28;20476;-68
2022/06/20 12:40:25;;;;;;;8.33;6.60;;;28.30;63.90;;;;;;4970816;28;20648;-68
2022/06/20 12:43:08;;;;;;;8.20;7.30;;;28.40;67.00;;;;;;4963060;28;20443;-68
2022/06/20 12:46:00;;;;;;;7.90;6.30;;;28.40;68.50;;;;;;4966401;28;20499;-67
2022/06/20 12:48:35;;;;;;;8.60;6.00;;;28.50;68.50;;;;;;4964748;28;20467;-67
2022/06/20 12:51:34;;;;;;;8.17;6.50;;;28.50;66.90;;;;;;4970249;28;20492;-67
2022/06/20 12:54:17;;;;;;;6.43;5.27;;;28.50;68.00;;;;;;4971392;28;20428;-68
2022/06/20 12:57:20;;;;;;;10.23;6.70;;;28.70;67.40;;;;;;4965264;28;20439;-68
2022/06/20 13:00:09;;;;;;;7.40;6.70;;;28.60;67.70;;;;;;4971850;28;20479;-68
2022/06/20 13:02:57;;;;;;;7.33;6.30;;;28.60;68.20;;;;;;4959988;28;20476;-68
2022/06/20 13:06:14;;;;;;;8.80;6.90;;;28.40;67.90;;;;;;4967407;28;20444;-68
2022/06/20 13:09:12;;;;;;;7.87;6.27;;;28.40;68.10;;;;;;4968774;28;20508;-66
2022/06/20 13:12:08;;;;;;;8.83;6.53;;;28.20;68.90;;;;;;4965759;28;20482;-63
2022/06/20 13:15:24;;;;;;;9.30;7.30;;;28.00;69.10;;;;;;4967253;28;20445;-62
2022/06/20 13:18:28;;;;;;;9.03;7.80;;;27.90;70.90;;;;;;4964763;28;20485;-66
2022/06/20 13:20:59;;;;;;;8.57;7.77;;;27.50;72.10;;;;;;4967947;28;20467;-64
2022/06/20 13:23:43;;;;;;;8.83;7.83;;;27.20;73.40;;;;;;4967389;28;20952;-64
2022/06/20 13:26:24;;;;;;;8.30;6.80;;;27.10;74.90;;;;;;4964017;28;20503;-64
2022/06/20 13:29:16;;;;;;;11.70;8.37;;;27.30;74.90;;;;;;4968847;28;20462;-64
2022/06/20 13:32:11;;;;;;;11.87;7.33;;;27.10;75.50;;;;;;4959652;28;20463;-64
2022/06/20 13:34:53;;;;;;;8.43;7.00;;;27.00;75.60;;;;;;4967295;28;20450;-64
2022/06/20 13:37:30;;;;;;;11.10;6.63;;;26.80;77.10;;;;;;4969034;28;20490;-64
2022/06/20 13:40:14;;;;;;;8.03;7.33;;;26.80;78.50;;;;;;4968456;28;20493;-64
2022/06/20 13:42:57;;;;;;;8.53;7.63;;;26.50;79.50;;;;;;4967548;28;20450;-64
2022/06/20 13:45:27;;;;;;;11.57;9.27;;;26.40;80.40;;;;;;4968841;28;20596;-64
2022/06/20 13:48:33;;;;;;;8.83;8.13;;;26.10;81.60;;;;;;4959836;28;20945;-64
2022/06/20 13:51:11;;;;;;;7.70;7.00;;;26.00;82.70;;;;;;4964633;28;20467;-64
2022/06/20 13:53:58;;;;;;;8.20;7.13;;;26.20;82.80;;;;;;4957722;28;20438;-64
2022/06/20 13:56:35;;;;;;;7.97;7.27;;;26.40;82.80;;;;;;4966995;28;20538;-64
2022/06/20 13:59:03;;;;;;;8.67;6.67;;;26.30;82.60;;;;;;4963892;28;20877;-64
2022/06/20 14:01:42;;;;;;;6.60;5.63;;;26.40;83.10;;;;;;4969160;28;20529;-64
2022/06/20 14:04:14;;;;;;;6.43;5.83;;;26.00;83.60;;;;;;4962325;28;20553;-64
2022/06/20 14:06:45;;;;;;;6.43;5.40;;;25.80;84.80;;;;;;4968628;28;20443;-64
2022/06/20 14:09:23;;;;;;;7.20;5.20;;;25.90;85.30;;;;;;4969008;28;20441;-64
2022/06/20 14:12:30;;;;;;;6.50;5.90;;;26.00;85.30;;;;;;4970470;28;20485;-64
2022/06/20 14:15:01;;;;;;;6.30;5.90;;;25.80;85.40;;;;;;4972478;28;21016;-64
2022/06/20 14:17:30;;;;;;;7.50;6.80;;;25.80;85.50;;;;;;4967789;28;20519;-64
2022/06/20 14:20:09;;;;;;;12.73;11.73;;;25.40;87.00;;;;;;4971971;28;20893;-64